sensor_id;sensor_type;location;lat;lon;timestamp;temperature;humidity
46335;DHT22;32051;48.882;9.210;2022-12-07T01:18:17;3.90;99.90
46335;DHT22;32051;48.882;9.210;2022-12-07T01:20:43;3.90;99.90
46335;DHT22;32051;48.882;9.210;2022-12-07T01:23:08;3.70;99.90
46335;DHT22;32051;48.882;9.210;2022-12-07T01:25:34;3.70;99.90
46335;DHT22;32051;48.882;9.210;2022-12-07T01:27:59;3.60;99.90
46335;DHT22;32051;48.882;9.210;2022-12-07T01:30:25;3.60;99.90
46335;DHT22;32051;48.882;9.210;2022-12-07T01:32:51;3.60;99.90
46335;DHT22;32051;48.882;9.210;2022-12-07T01:35:16;3.60;99.90
46335;DHT22;32051;48.882;9.210;2022-12-07T01:37:42;3.60;99.90
46335;DHT22;32051;48.882;9.210;2022-12-07T01:40:09;3.60;99.90
46335;DHT22;32051;48.882;9.210;2022-12-07T01:42:35;3.60;99.90
46335;DHT22;32051;48.882;9.210;2022-12-07T01:45:41;3.60;99.90
46335;DHT22;32051;48.882;9.210;2022-12-07T01:48:08;3.60;99.90
46335;DHT22;32051;48.882;9.210;2022-12-07T01:50:35;3.60;99.90
46335;DHT22;32051;48.882;9.210;2022-12-07T01:53:03;3.60;99.90
46335;DHT22;32051;48.882;9.210;2022-12-07T01:55:30;3.60;99.90
46335;DHT22;32051;48.882;9.210;2022-12-07T01:57:56;3.60;99.90
46335;DHT22;32051;48.882;9.210;2022-12-07T02:00:22;3.60;99.90
46335;DHT22;32051;48.882;9.210;2022-12-07T02:03:05;3.60;99.90
46335;DHT22;32051;48.882;9.210;2022-12-07T02:05:34;3.50;99.90
46335;DHT22;32051;48.882;9.210;2022-12-07T02:08:01;3.60;99.90
46335;DHT22;32051;48.882;9.210;2022-12-07T02:10:30;3.60;99.90
46335;DHT22;32051;48.882;9.210;2022-12-07T02:12:58;3.50;99.90
46335;DHT22;32051;48.882;9.210;2022-12-07T02:16:08;3.50;99.90
46335;DHT22;32051;48.882;9.210;2022-12-07T02:29:46;3.50;99.90
46335;DHT22;32051;48.882;9.210;2022-12-07T02:32:24;3.50;99.90
46335;DHT22;32051;48.882;9.210;2022-12-07T02:34:55;3.50;99.90
46335;DHT22;32051;48.882;9.210;2022-12-07T02:37:31;3.50;99.90
46335;DHT22;32051;48.882;9.210;2022-12-07T02:40:17;3.40;99.90
46335;DHT22;32051;48.882;9.210;2022-12-07T02:42:49;3.50;99.90
46335;DHT22;32051;48.882;9.210;2022-12-07T02:45:20;3.40;99.90
46335;DHT22;32051;48.882;9.210;2022-12-07T02:47:50;3.40;99.90
46335;DHT22;32051;48.882;9.210;2022-12-07T02:50:20;3.40;99.90
46335;DHT22;32051;48.882;9.210;2022-12-07T02:52:46;3.40;99.90
46335;DHT22;32051;48.882;9.210;2022-12-07T02:55:13;3.50;99.90
46335;DHT22;32051;48.882;9.210;2022-12-07T03:00:16;3.50;99.90
46335;DHT22;32051;48.882;9.210;2022-12-07T03:08:38;3.50;99.90
46335;DHT22;32051;48.882;9.210;2022-12-07T03:11:13;3.50;99.90
46335;DHT22;32051;48.882;9.210;2022-12-07T03:16:38;3.50;99.90
46335;DHT22;32051;48.882;9.210;2022-12-07T03:19:11;3.40;99.90
46335;DHT22;32051;48.882;9.210;2022-12-07T03:21:41;3.40;99.90
46335;DHT22;32051;48.882;9.210;2022-12-07T03:24:15;3.40;99.90
46335;DHT22;32051;48.882;9.210;2022-12-07T03:26:45;3.30;99.90
46335;DHT22;32051;48.882;9.210;2022-12-07T03:29:22;3.30;99.90
46335;DHT22;32051;48.882;9.210;2022-12-07T03:32:05;3.30;99.90
46335;DHT22;32051;48.882;9.210;2022-12-07T03:34:42;3.30;99.90
46335;DHT22;32051;48.882;9.210;2022-12-07T03:37:18;3.30;99.90
46335;DHT22;32051;48.882;9.210;2022-12-07T03:39:54;3.30;99.90
46335;DHT22;32051;48.882;9.210;2022-12-07T03:42:23;3.20;99.90
46335;DHT22;32051;48.882;9.210;2022-12-07T03:44:49;3.20;99.90
46335;DHT22;32051;48.882;9.210;2022-12-07T03:47:33;3.30;99.90
46335;DHT22;32051;48.882;9.210;2022-12-07T03:50:12;3.20;99.90
46335;DHT22;32051;48.882;9.210;2022-12-07T03:52:43;3.20;99.90
46335;DHT22;32051;48.882;9.210;2022-12-07T03:55:32;3.20;99.90
46335;DHT22;32051;48.882;9.210;2022-12-07T03:58:03;3.20;99.90
46335;DHT22;32051;48.882;9.210;2022-12-07T04:00:29;3.10;99.90
46335;DHT22;32051;48.882;9.210;2022-12-07T04:02:55;3.10;99.90
46335;DHT22;32051;48.882;9.210;2022-12-07T04:05:21;3.10;99.90
46335;DHT22;32051;48.882;9.210;2022-12-07T04:07:47;3.10;99.90
46335;DHT22;32051;48.882;9.210;2022-12-07T04:10:13;3.00;99.90
46335;DHT22;32051;48.882;9.210;2022-12-07T04:12:39;2.90;99.90
46335;DHT22;32051;48.882;9.210;2022-12-07T04:15:05;2.90;99.90
46335;DHT22;32051;48.882;9.210;2022-12-07T04:17:31;2.80;99.90
46335;DHT22;32051;48.882;9.210;2022-12-07T04:19:57;2.80;99.90
46335;DHT22;32051;48.882;9.210;2022-12-07T04:22:22;2.80;99.90
46335;DHT22;32051;48.882;9.210;2022-12-07T04:24:48;2.80;99.90
46335;DHT22;32051;48.882;9.210;2022-12-07T04:27:14;2.80;99.90
46335;DHT22;32051;48.882;9.210;2022-12-07T04:29:39;2.80;99.90
46335;DHT22;32051;48.882;9.210;2022-12-07T04:32:05;2.80;99.90
46335;DHT22;32051;48.882;9.210;2022-12-07T04:34:31;2.90;99.90
46335;DHT22;32051;48.882;9.210;2022-12-07T04:36:57;2.90;99.90
46335;DHT22;32051;48.882;9.210;2022-12-07T04:39:25;2.90;99.90
46335;DHT22;32051;48.882;9.210;2022-12-07T04:41:52;2.90;99.90
46335;DHT22;32051;48.882;9.210;2022-12-07T04:44:18;2.90;99.90
46335;DHT22;32051;48.882;9.210;2022-12-07T04:46:44;2.90;99.90
46335;DHT22;32051;48.882;9.210;2022-12-07T04:49:11;2.90;99.90
46335;DHT22;32051;48.882;9.210;2022-12-07T04:51:37;2.90;99.90
46335;DHT22;32051;48.882;9.210;2022-12-07T04:54:03;2.90;99.90
46335;DHT22;32051;48.882;9.210;2022-12-07T04:56:29;2.90;99.90
46335;DHT22;32051;48.882;9.210;2022-12-07T04:58:55;3.00;99.90
46335;DHT22;32051;48.882;9.210;2022-12-07T05:01:22;2.90;99.90
46335;DHT22;32051;48.882;9.210;2022-12-07T05:03:47;2.90;99.90
46335;DHT22;32051;48.882;9.210;2022-12-07T05:06:14;2.90;99.90
46335;DHT22;32051;48.882;9.210;2022-12-07T05:08:40;2.90;99.90
46335;DHT22;32051;48.882;9.210;2022-12-07T05:11:06;2.90;99.90
46335;DHT22;32051;48.882;9.210;2022-12-07T05:13:32;2.90;99.90
46335;DHT22;32051;48.882;9.210;2022-12-07T05:15:58;2.90;99.90
46335;DHT22;32051;48.882;9.210;2022-12-07T05:18:24;2.90;99.90
46335;DHT22;32051;48.882;9.210;2022-12-07T05:20:50;2.90;99.90
46335;DHT22;32051;48.882;9.210;2022-12-07T05:23:17;2.80;99.90
46335;DHT22;32051;48.882;9.210;2022-12-07T05:25:43;2.90;99.90
46335;DHT22;32051;48.882;9.210;2022-12-07T05:28:09;2.80;99.90
46335;DHT22;32051;48.882;9.210;2022-12-07T05:30:35;2.80;99.90
46335;DHT22;32051;48.882;9.210;2022-12-07T05:33:00;2.80;99.90
46335;DHT22;32051;48.882;9.210;2022-12-07T05:35:26;2.70;99.90
46335;DHT22;32051;48.882;9.210;2022-12-07T05:37:52;2.70;99.90
46335;DHT22;32051;48.882;9.210;2022-12-07T05:40:17;2.70;99.90
46335;DHT22;32051;48.882;9.210;2022-12-07T05:42:44;2.70;99.90
46335;DHT22;32051;48.882;9.210;2022-12-07T05:45:10;2.70;99.90
46335;DHT22;32051;48.882;9.210;2022-12-07T05:47:36;2.70;99.90
46335;DHT22;32051;48.882;9.210;2022-12-07T05:50:03;2.70;99.90
46335;DHT22;32051;48.882;9.210;2022-12-07T05:52:29;2.70;99.90
46335;DHT22;32051;48.882;9.210;2022-12-07T05:54:55;2.80;99.90
46335;DHT22;32051;48.882;9.210;2022-12-07T05:57:20;2.80;99.90
46335;DHT22;32051;48.882;9.210;2022-12-07T05:59:46;2.80;99.90
46335;DHT22;32051;48.882;9.210;2022-12-07T06:02:14;2.80;99.90
46335;DHT22;32051;48.882;9.210;2022-12-07T06:04:45;2.90;99.90
46335;DHT22;32051;48.882;9.210;2022-12-07T06:07:12;2.90;99.90
46335;DHT22;32051;48.882;9.210;2022-12-07T06:09:38;2.90;99.90
46335;DHT22;32051;48.882;9.210;2022-12-07T06:12:04;2.90;99.90
46335;DHT22;32051;48.882;9.210;2022-12-07T06:14:49;3.00;99.90
46335;DHT22;32051;48.882;9.210;2022-12-07T06:19:41;3.00;99.90
46335;DHT22;32051;48.882;9.210;2022-12-07T06:22:07;3.00;99.90
46335;DHT22;32051;48.882;9.210;2022-12-07T06:24:35;3.00;99.90
46335;DHT22;32051;48.882;9.210;2022-12-07T06:27:01;2.90;99.90
46335;DHT22;32051;48.882;9.210;2022-12-07T06:29:26;2.90;99.90
46335;DHT22;32051;48.882;9.210;2022-12-07T06:31:52;2.90;99.90
46335;DHT22;32051;48.882;9.210;2022-12-07T06:34:21;2.90;99.90
46335;DHT22;32051;48.882;9.210;2022-12-07T06:36:51;2.90;99.90
46335;DHT22;32051;48.882;9.210;2022-12-07T06:39:20;2.90;99.90
46335;DHT22;32051;48.882;9.210;2022-12-07T06:41:46;2.90;99.90
46335;DHT22;32051;48.882;9.210;2022-12-07T06:44:11;2.80;99.90
46335;DHT22;32051;48.882;9.210;2022-12-07T06:46:37;2.90;99.90
46335;DHT22;32051;48.882;9.210;2022-12-07T06:49:05;2.90;99.90
46335;DHT22;32051;48.882;9.210;2022-12-07T06:51:32;2.90;99.90
46335;DHT22;32051;48.882;9.210;2022-12-07T06:53:58;2.90;99.90
46335;DHT22;32051;48.882;9.210;2022-12-07T06:56:24;2.90;99.90
46335;DHT22;32051;48.882;9.210;2022-12-07T06:58:49;2.90;99.90
46335;DHT22;32051;48.882;9.210;2022-12-07T07:01:17;2.90;99.90
46335;DHT22;32051;48.882;9.210;2022-12-07T07:03:44;2.90;99.90
46335;DHT22;32051;48.882;9.210;2022-12-07T07:06:11;2.90;99.90
46335;DHT22;32051;48.882;9.210;2022-12-07T07:08:38;2.90;99.90
46335;DHT22;32051;48.882;9.210;2022-12-07T07:11:05;2.80;99.90
46335;DHT22;32051;48.882;9.210;2022-12-07T07:13:31;2.90;99.90
46335;DHT22;32051;48.882;9.210;2022-12-07T07:15:57;2.80;99.90
46335;DHT22;32051;48.882;9.210;2022-12-07T07:18:23;2.80;99.90
46335;DHT22;32051;48.882;9.210;2022-12-07T07:20:50;2.80;99.90
46335;DHT22;32051;48.882;9.210;2022-12-07T07:23:16;2.90;99.90
46335;DHT22;32051;48.882;9.210;2022-12-07T07:25:42;2.90;99.90
46335;DHT22;32051;48.882;9.210;2022-12-07T07:28:08;2.90;99.90
46335;DHT22;32051;48.882;9.210;2022-12-07T07:30:33;2.90;99.90
46335;DHT22;32051;48.882;9.210;2022-12-07T07:33:00;2.90;99.90
46335;DHT22;32051;48.882;9.210;2022-12-07T07:35:28;2.90;99.90
46335;DHT22;32051;48.882;9.210;2022-12-07T07:37:54;3.00;99.90
46335;DHT22;32051;48.882;9.210;2022-12-07T07:40:20;3.00;99.90
46335;DHT22;32051;48.882;9.210;2022-12-07T07:42:50;3.00;99.90
46335;DHT22;32051;48.882;9.210;2022-12-07T07:45:17;3.10;99.90
46335;DHT22;32051;48.882;9.210;2022-12-07T07:47:43;3.10;99.90
46335;DHT22;32051;48.882;9.210;2022-12-07T07:50:09;3.10;99.90
46335;DHT22;32051;48.882;9.210;2022-12-07T07:52:35;3.10;99.90
46335;DHT22;32051;48.882;9.210;2022-12-07T07:55:01;3.20;99.90
46335;DHT22;32051;48.882;9.210;2022-12-07T07:57:27;3.20;99.90
46335;DHT22;32051;48.882;9.210;2022-12-07T07:59:52;3.20;99.90
46335;DHT22;32051;48.882;9.210;2022-12-07T08:02:20;3.20;99.90
46335;DHT22;32051;48.882;9.210;2022-12-07T08:04:46;3.30;99.90
46335;DHT22;32051;48.882;9.210;2022-12-07T08:07:12;3.40;99.90
46335;DHT22;32051;48.882;9.210;2022-12-07T08:09:38;3.40;99.90
46335;DHT22;32051;48.882;9.210;2022-12-07T08:12:04;3.50;99.90
46335;DHT22;32051;48.882;9.210;2022-12-07T08:14:30;3.50;99.90
46335;DHT22;32051;48.882;9.210;2022-12-07T08:16:56;3.60;99.90
46335;DHT22;32051;48.882;9.210;2022-12-07T08:19:22;3.60;99.90
46335;DHT22;32051;48.882;9.210;2022-12-07T08:21:48;3.60;99.90
46335;DHT22;32051;48.882;9.210;2022-12-07T08:24:14;3.70;99.90
46335;DHT22;32051;48.882;9.210;2022-12-07T08:26:41;3.70;99.90
46335;DHT22;32051;48.882;9.210;2022-12-07T08:29:06;3.70;99.90
46335;DHT22;32051;48.882;9.210;2022-12-07T08:31:32;3.70;99.90
46335;DHT22;32051;48.882;9.210;2022-12-07T08:33:58;3.80;99.90
46335;DHT22;32051;48.882;9.210;2022-12-07T08:36:24;3.80;99.90
46335;DHT22;32051;48.882;9.210;2022-12-07T08:38:50;3.90;99.90
46335;DHT22;32051;48.882;9.210;2022-12-07T08:41:16;3.90;99.90
46335;DHT22;32051;48.882;9.210;2022-12-07T08:43:42;4.40;99.90
46335;DHT22;32051;48.882;9.210;2022-12-07T08:46:36;4.20;99.90
46335;DHT22;32051;48.882;9.210;2022-12-07T08:49:13;4.30;99.90
46335;DHT22;32051;48.882;9.210;2022-12-07T08:51:40;4.40;99.90
46335;DHT22;32051;48.882;9.210;2022-12-07T08:54:09;4.40;99.90
46335;DHT22;32051;48.882;9.210;2022-12-07T08:56:36;4.40;99.90
46335;DHT22;32051;48.882;9.210;2022-12-07T08:59:03;4.40;99.90
46335;DHT22;32051;48.882;9.210;2022-12-07T09:13:58;4.80;99.90
46335;DHT22;32051;48.882;9.210;2022-12-07T09:16:24;4.70;99.90
46335;DHT22;32051;48.882;9.210;2022-12-07T09:18:50;4.50;99.90
46335;DHT22;32051;48.882;9.210;2022-12-07T09:21:16;4.90;99.90
46335;DHT22;32051;48.882;9.210;2022-12-07T09:23:42;4.80;99.90
46335;DHT22;32051;48.882;9.210;2022-12-07T09:26:08;5.10;99.90
46335;DHT22;32051;48.882;9.210;2022-12-07T09:28:34;5.20;99.90
46335;DHT22;32051;48.882;9.210;2022-12-07T09:30:59;5.20;99.90
46335;DHT22;32051;48.882;9.210;2022-12-07T09:33:25;5.20;99.90
46335;DHT22;32051;48.882;9.210;2022-12-07T09:35:51;5.30;99.90
46335;DHT22;32051;48.882;9.210;2022-12-07T09:38:18;5.30;99.90
46335;DHT22;32051;48.882;9.210;2022-12-07T09:40:45;5.30;99.90
46335;DHT22;32051;48.882;9.210;2022-12-07T09:43:22;5.40;99.90
46335;DHT22;32051;48.882;9.210;2022-12-07T09:45:51;5.40;99.90
46335;DHT22;32051;48.882;9.210;2022-12-07T09:48:28;5.40;99.90
46335;DHT22;32051;48.882;9.210;2022-12-07T09:50:57;6.50;99.90
46335;DHT22;32051;48.882;9.210;2022-12-07T09:53:43;5.30;99.90
46335;DHT22;32051;48.882;9.210;2022-12-07T09:56:17;5.30;99.90
46335;DHT22;32051;48.882;9.210;2022-12-07T09:58:45;5.20;99.90
46335;DHT22;32051;48.882;9.210;2022-12-07T10:01:20;5.20;99.90
46335;DHT22;32051;48.882;9.210;2022-12-07T10:03:55;5.20;99.90
46335;DHT22;32051;48.882;9.210;2022-12-07T10:06:24;5.30;99.90
46335;DHT22;32051;48.882;9.210;2022-12-07T10:08:49;5.30;99.90
46335;DHT22;32051;48.882;9.210;2022-12-07T10:11:15;5.20;99.90
46335;DHT22;32051;48.882;9.210;2022-12-07T10:13:44;5.30;99.90
46335;DHT22;32051;48.882;9.210;2022-12-07T10:41:17;5.10;99.90
46335;DHT22;32051;48.882;9.210;2022-12-07T10:43:55;5.10;99.90
46335;DHT22;32051;48.882;9.210;2022-12-07T10:46:46;5.10;99.90
46335;DHT22;32051;48.882;9.210;2022-12-07T10:55:08;5.10;99.90
46335;DHT22;32051;48.882;9.210;2022-12-07T10:57:51;5.10;99.90
46335;DHT22;32051;48.882;9.210;2022-12-07T11:00:24;5.10;99.90
46335;DHT22;32051;48.882;9.210;2022-12-07T11:11:38;5.10;99.90
46335;DHT22;32051;48.882;9.210;2022-12-07T11:17:09;5.00;99.90
46335;DHT22;32051;48.882;9.210;2022-12-07T11:20:14;4.90;99.90
46335;DHT22;32051;48.882;9.210;2022-12-07T11:28:26;4.70;99.90
46335;DHT22;32051;48.882;9.210;2022-12-07T11:33:39;4.70;99.90
46335;DHT22;32051;48.882;9.210;2022-12-07T11:39:10;4.70;99.90
46335;DHT22;32051;48.882;9.210;2022-12-07T11:41:39;4.70;99.90
46335;DHT22;32051;48.882;9.210;2022-12-07T11:44:39;4.70;99.90
46335;DHT22;32051;48.882;9.210;2022-12-07T11:47:38;4.70;99.90
46335;DHT22;32051;48.882;9.210;2022-12-07T11:52:51;4.80;99.90
46335;DHT22;32051;48.882;9.210;2022-12-07T11:55:30;4.80;99.90
46335;DHT22;32051;48.882;9.210;2022-12-07T12:00:49;4.80;99.90
46335;DHT22;32051;48.882;9.210;2022-12-07T12:03:26;4.90;99.90
46335;DHT22;32051;48.882;9.210;2022-12-07T12:05:56;4.90;99.90
46335;DHT22;32051;48.882;9.210;2022-12-07T12:08:28;5.00;99.90
46335;DHT22;32051;48.882;9.210;2022-12-07T12:11:23;5.00;99.90
46335;DHT22;32051;48.882;9.210;2022-12-07T12:20:13;5.00;99.90
46335;DHT22;32051;48.882;9.210;2022-12-07T12:22:44;5.00;99.90
46335;DHT22;32051;48.882;9.210;2022-12-07T12:25:36;5.10;99.90
46335;DHT22;32051;48.882;9.210;2022-12-07T12:28:03;5.20;99.90
46335;DHT22;32051;48.882;9.210;2022-12-07T12:30:39;5.20;99.90
46335;DHT22;32051;48.882;9.210;2022-12-07T12:33:28;5.20;99.90
46335;DHT22;32051;48.882;9.210;2022-12-07T12:47:01;5.10;99.90
46335;DHT22;32051;48.882;9.210;2022-12-07T12:49:42;5.10;99.90
46335;DHT22;32051;48.882;9.210;2022-12-07T12:57:36;5.00;99.90
46335;DHT22;32051;48.882;9.210;2022-12-07T13:00:23;4.90;99.90
46335;DHT22;32051;48.882;9.210;2022-12-07T13:02:50;5.00;99.90
46335;DHT22;32051;48.882;9.210;2022-12-07T13:15:47;4.90;99.90
46335;DHT22;32051;48.882;9.210;2022-12-07T13:34:34;4.80;99.90
46335;DHT22;32051;48.882;9.210;2022-12-07T13:39:47;4.90;99.90
46335;DHT22;32051;48.882;9.210;2022-12-07T13:42:29;4.90;99.90
46335;DHT22;32051;48.882;9.210;2022-12-07T13:44:58;4.90;99.90
46335;DHT22;32051;48.882;9.210;2022-12-07T13:49:55;4.90;99.90
46335;DHT22;32051;48.882;9.210;2022-12-07T13:52:29;5.00;99.90
46335;DHT22;32051;48.882;9.210;2022-12-07T13:54:57;5.00;99.90
46335;DHT22;32051;48.882;9.210;2022-12-07T13:57:24;5.00;99.90
46335;DHT22;32051;48.882;9.210;2022-12-07T13:59:51;5.00;99.90
46335;DHT22;32051;48.882;9.210;2022-12-07T14:02:32;5.00;99.90
46335;DHT22;32051;48.882;9.210;2022-12-07T14:05:16;5.00;99.90
46335;DHT22;32051;48.882;9.210;2022-12-07T14:07:56;5.00;99.90
46335;DHT22;32051;48.882;9.210;2022-12-07T14:10:37;5.00;99.90
46335;DHT22;32051;48.882;9.210;2022-12-07T14:15:51;5.00;99.90
46335;DHT22;32051;48.882;9.210;2022-12-07T14:21:27;5.00;99.90
46335;DHT22;32051;48.882;9.210;2022-12-07T14:26:37;4.90;99.90
46335;DHT22;32051;48.882;9.210;2022-12-07T14:34:21;4.80;99.90
46335;DHT22;32051;48.882;9.210;2022-12-07T14:36:47;4.80;99.90
46335;DHT22;32051;48.882;9.210;2022-12-07T14:39:13;4.70;99.90
46335;DHT22;32051;48.882;9.210;2022-12-07T14:41:39;4.70;99.90
46335;DHT22;32051;48.882;9.210;2022-12-07T14:44:20;4.70;99.90
46335;DHT22;32051;48.882;9.210;2022-12-07T14:46:47;4.60;99.90
46335;DHT22;32051;48.882;9.210;2022-12-07T14:49:13;4.60;99.90
46335;DHT22;32051;48.882;9.210;2022-12-07T14:51:40;4.60;99.90
46335;DHT22;32051;48.882;9.210;2022-12-07T14:54:18;4.60;99.90
46335;DHT22;32051;48.882;9.210;2022-12-07T14:56:45;4.50;99.90
46335;DHT22;32051;48.882;9.210;2022-12-07T14:59:17;4.50;99.90
46335;DHT22;32051;48.882;9.210;2022-12-07T15:01:44;4.40;99.90
46335;DHT22;32051;48.882;9.210;2022-12-07T15:04:10;4.40;99.90
46335;DHT22;32051;48.882;9.210;2022-12-07T15:06:36;4.40;99.90
46335;DHT22;32051;48.882;9.210;2022-12-07T15:09:02;4.30;99.90
46335;DHT22;32051;48.882;9.210;2022-12-07T15:11:27;4.30;99.90
46335;DHT22;32051;48.882;9.210;2022-12-07T15:13:53;4.30;99.90
46335;DHT22;32051;48.882;9.210;2022-12-07T15:16:40;4.20;99.90
46335;DHT22;32051;48.882;9.210;2022-12-07T15:19:42;4.20;99.90
46335;DHT22;32051;48.882;9.210;2022-12-07T15:22:01;4.20;99.90
46335;DHT22;32051;48.882;9.210;2022-12-07T15:24:27;4.20;99.90
46335;DHT22;32051;48.882;9.210;2022-12-07T15:26:53;4.20;99.90
46335;DHT22;32051;48.882;9.210;2022-12-07T15:29:18;4.20;99.90
46335;DHT22;32051;48.882;9.210;2022-12-07T15:31:44;4.10;99.90
46335;DHT22;32051;48.882;9.210;2022-12-07T15:34:11;4.10;99.90
46335;DHT22;32051;48.882;9.210;2022-12-07T15:36:36;4.10;99.90
46335;DHT22;32051;48.882;9.210;2022-12-07T15:39:02;4.10;99.90
46335;DHT22;32051;48.882;9.210;2022-12-07T15:41:28;4.00;99.90
46335;DHT22;32051;48.882;9.210;2022-12-07T15:43:54;4.00;99.90
46335;DHT22;32051;48.882;9.210;2022-12-07T15:46:40;4.10;99.90
46335;DHT22;32051;48.882;9.210;2022-12-07T15:49:15;4.00;99.90
46335;DHT22;32051;48.882;9.210;2022-12-07T15:51:42;4.00;99.90
46335;DHT22;32051;48.882;9.210;2022-12-07T15:54:21;4.00;99.90
46335;DHT22;32051;48.882;9.210;2022-12-07T15:56:47;4.00;99.90
46335;DHT22;32051;48.882;9.210;2022-12-07T15:59:13;3.90;99.90
46335;DHT22;32051;48.882;9.210;2022-12-07T16:01:39;3.90;99.90
46335;DHT22;32051;48.882;9.210;2022-12-07T16:04:05;3.90;99.90
46335;DHT22;32051;48.882;9.210;2022-12-07T16:06:31;3.90;99.90
46335;DHT22;32051;48.882;9.210;2022-12-07T16:08:56;3.90;99.90
46335;DHT22;32051;48.882;9.210;2022-12-07T16:11:23;3.90;99.90
46335;DHT22;32051;48.882;9.210;2022-12-07T16:13:48;3.90;99.90
46335;DHT22;32051;48.882;9.210;2022-12-07T16:16:16;3.90;99.90
46335;DHT22;32051;48.882;9.210;2022-12-07T16:18:43;3.90;99.90
46335;DHT22;32051;48.882;9.210;2022-12-07T16:21:09;3.90;99.90
46335;DHT22;32051;48.882;9.210;2022-12-07T16:23:35;3.80;99.90
46335;DHT22;32051;48.882;9.210;2022-12-07T16:26:09;3.80;99.90
46335;DHT22;32051;48.882;9.210;2022-12-07T16:28:36;3.80;99.90
46335;DHT22;32051;48.882;9.210;2022-12-07T16:31:15;3.80;99.90
46335;DHT22;32051;48.882;9.210;2022-12-07T16:33:43;3.80;99.90
46335;DHT22;32051;48.882;9.210;2022-12-07T16:36:10;3.70;99.90
46335;DHT22;32051;48.882;9.210;2022-12-07T16:38:37;3.70;99.90
46335;DHT22;32051;48.882;9.210;2022-12-07T16:41:07;3.60;99.90
46335;DHT22;32051;48.882;9.210;2022-12-07T16:43:33;3.60;99.90
46335;DHT22;32051;48.882;9.210;2022-12-07T16:45:59;3.60;99.90
46335;DHT22;32051;48.882;9.210;2022-12-07T16:48:24;3.50;99.90
46335;DHT22;32051;48.882;9.210;2022-12-07T16:50:50;3.50;99.90
46335;DHT22;32051;48.882;9.210;2022-12-07T16:53:19;3.40;99.90
46335;DHT22;32051;48.882;9.210;2022-12-07T16:55:46;3.40;99.90
46335;DHT22;32051;48.882;9.210;2022-12-07T16:58:13;3.40;99.90
46335;DHT22;32051;48.882;9.210;2022-12-07T17:00:40;3.30;99.90
46335;DHT22;32051;48.882;9.210;2022-12-07T17:03:08;3.30;99.90
46335;DHT22;32051;48.882;9.210;2022-12-07T17:05:38;3.30;99.90
46335;DHT22;32051;48.882;9.210;2022-12-07T17:08:04;3.30;99.90
46335;DHT22;32051;48.882;9.210;2022-12-07T17:10:30;3.30;99.90
46335;DHT22;32051;48.882;9.210;2022-12-07T17:12:57;3.30;99.90
46335;DHT22;32051;48.882;9.210;2022-12-07T17:15:23;3.30;99.90
46335;DHT22;32051;48.882;9.210;2022-12-07T17:17:55;3.30;99.90
46335;DHT22;32051;48.882;9.210;2022-12-07T17:20:23;3.30;99.90
46335;DHT22;32051;48.882;9.210;2022-12-07T17:22:49;3.30;99.90
46335;DHT22;32051;48.882;9.210;2022-12-07T17:25:15;3.40;99.90
46335;DHT22;32051;48.882;9.210;2022-12-07T17:27:41;3.40;99.90
46335;DHT22;32051;48.882;9.210;2022-12-07T17:30:08;3.40;99.90
46335;DHT22;32051;48.882;9.210;2022-12-07T17:32:34;3.50;99.90
46335;DHT22;32051;48.882;9.210;2022-12-07T17:35:00;3.50;99.90
46335;DHT22;32051;48.882;9.210;2022-12-07T17:37:26;3.50;99.90
46335;DHT22;32051;48.882;9.210;2022-12-07T17:39:52;3.50;99.90
46335;DHT22;32051;48.882;9.210;2022-12-07T17:42:23;3.50;99.90
46335;DHT22;32051;48.882;9.210;2022-12-07T17:45:03;3.50;99.90
46335;DHT22;32051;48.882;9.210;2022-12-07T17:47:29;3.50;99.90
46335;DHT22;32051;48.882;9.210;2022-12-07T17:49:55;3.60;99.90
46335;DHT22;32051;48.882;9.210;2022-12-07T17:52:21;3.60;99.90
46335;DHT22;32051;48.882;9.210;2022-12-07T17:55:06;3.60;99.90
46335;DHT22;32051;48.882;9.210;2022-12-07T17:57:32;3.60;99.90
46335;DHT22;32051;48.882;9.210;2022-12-07T17:59:58;3.70;99.90
46335;DHT22;32051;48.882;9.210;2022-12-07T18:02:23;3.70;99.90
46335;DHT22;32051;48.882;9.210;2022-12-07T18:04:49;3.70;99.90
46335;DHT22;32051;48.882;9.210;2022-12-07T18:07:15;3.70;99.90
46335;DHT22;32051;48.882;9.210;2022-12-07T18:09:41;3.70;99.90
46335;DHT22;32051;48.882;9.210;2022-12-07T18:12:07;3.70;99.90
46335;DHT22;32051;48.882;9.210;2022-12-07T18:14:33;3.70;99.90
46335;DHT22;32051;48.882;9.210;2022-12-07T18:16:59;3.70;99.90
46335;DHT22;32051;48.882;9.210;2022-12-07T18:19:25;3.70;99.90
46335;DHT22;32051;48.882;9.210;2022-12-07T18:21:51;3.70;99.90
46335;DHT22;32051;48.882;9.210;2022-12-07T18:24:17;3.70;99.90
46335;DHT22;32051;48.882;9.210;2022-12-07T18:26:43;3.70;99.90
46335;DHT22;32051;48.882;9.210;2022-12-07T18:29:16;3.80;99.90
46335;DHT22;32051;48.882;9.210;2022-12-07T18:31:44;3.80;99.90
46335;DHT22;32051;48.882;9.210;2022-12-07T18:34:12;3.80;99.90
46335;DHT22;32051;48.882;9.210;2022-12-07T18:36:39;3.80;99.90
46335;DHT22;32051;48.882;9.210;2022-12-07T18:39:07;3.80;99.90
46335;DHT22;32051;48.882;9.210;2022-12-07T18:41:33;3.80;99.90
46335;DHT22;32051;48.882;9.210;2022-12-07T18:43:59;3.80;99.90
46335;DHT22;32051;48.882;9.210;2022-12-07T18:46:25;3.80;99.90
46335;DHT22;32051;48.882;9.210;2022-12-07T18:48:51;3.80;99.90
46335;DHT22;32051;48.882;9.210;2022-12-07T18:51:18;3.80;99.90
46335;DHT22;32051;48.882;9.210;2022-12-07T18:53:45;3.80;99.90
46335;DHT22;32051;48.882;9.210;2022-12-07T18:56:16;3.90;99.90
46335;DHT22;32051;48.882;9.210;2022-12-07T18:58:43;3.90;99.90
46335;DHT22;32051;48.882;9.210;2022-12-07T19:01:29;3.90;99.90
46335;DHT22;32051;48.882;9.210;2022-12-07T19:03:58;3.90;99.90
46335;DHT22;32051;48.882;9.210;2022-12-07T19:06:24;3.90;99.90
46335;DHT22;32051;48.882;9.210;2022-12-07T19:08:50;3.90;99.90
46335;DHT22;32051;48.882;9.210;2022-12-07T19:11:23;3.90;99.90
46335;DHT22;32051;48.882;9.210;2022-12-07T19:14:08;3.90;99.90
46335;DHT22;32051;48.882;9.210;2022-12-07T19:16:34;3.90;99.90
46335;DHT22;32051;48.882;9.210;2022-12-07T19:18:59;3.90;99.90
46335;DHT22;32051;48.882;9.210;2022-12-07T19:21:25;3.90;99.90
46335;DHT22;32051;48.882;9.210;2022-12-07T19:23:52;3.90;99.90
46335;DHT22;32051;48.882;9.210;2022-12-07T19:26:18;3.80;99.90
46335;DHT22;32051;48.882;9.210;2022-12-07T19:28:43;3.90;99.90
46335;DHT22;32051;48.882;9.210;2022-12-07T19:31:10;3.90;99.90
46335;DHT22;32051;48.882;9.210;2022-12-07T19:33:37;3.90;99.90
46335;DHT22;32051;48.882;9.210;2022-12-07T19:36:03;3.90;99.90
46335;DHT22;32051;48.882;9.210;2022-12-07T19:38:30;3.80;99.90
46335;DHT22;32051;48.882;9.210;2022-12-07T19:41:10;3.80;99.90
46335;DHT22;32051;48.882;9.210;2022-12-07T19:43:55;3.80;99.90
46335;DHT22;32051;48.882;9.210;2022-12-07T19:46:21;3.80;99.90
46335;DHT22;32051;48.882;9.210;2022-12-07T19:48:46;3.80;99.90
46335;DHT22;32051;48.882;9.210;2022-12-07T19:51:12;3.80;99.90
46335;DHT22;32051;48.882;9.210;2022-12-07T19:53:38;3.80;99.90
46335;DHT22;32051;48.882;9.210;2022-12-07T19:56:04;3.80;99.90
46335;DHT22;32051;48.882;9.210;2022-12-07T19:58:30;3.80;99.90
46335;DHT22;32051;48.882;9.210;2022-12-07T20:01:02;3.80;99.90